Time;durP1;ratioP1;P1;durP2;ratioP2;P2;SDS_P1;SDS_P2;PMS_P1;PMS_P2;Temp;Humidity;BMP_temperature;BMP_pressure;BME280_temperature;BME280_humidity;BME280_pressure;Samples;Min_cycle;Max_cycle;Signal;HPM_P1;HPM_P2
2024/02/16 00:01:43;;;;;;;17.70;10.95;;;11.00;99.90;;;;;;4955004;28;20922;-70
2024/02/16 00:04:10;;;;;;;10.20;9.30;;;11.00;99.90;;;;;;4946931;28;20047;-70
2024/02/16 00:06:36;;;;;;;10.43;9.38;;;11.00;99.90;;;;;;4944478;28;20043;-70
2024/02/16 00:09:03;;;;;;;13.18;10.63;;;11.00;99.90;;;;;;4943287;28;20137;-70
2024/02/16 00:11:30;;;;;;;26.83;14.60;;;10.90;99.90;;;;;;4931869;28;20047;-69
2024/02/16 00:13:57;;;;;;;15.65;11.43;;;10.90;99.90;;;;;;4924669;28;21000;-69
2024/02/16 00:16:24;;;;;;;14.05;10.63;;;10.90;99.90;;;;;;4922406;28;20613;-69
2024/02/16 00:18:50;;;;;;;12.05;10.27;;;11.00;99.90;;;;;;4923827;28;20039;-69
2024/02/16 00:21:18;;;;;;;18.17;10.07;;;11.00;99.90;;;;;;4936601;28;20047;-69
2024/02/16 00:23:45;;;;;;;15.48;10.55;;;11.00;99.90;;;;;;4939929;28;20055;-69
2024/02/16 00:26:12;;;;;;;10.98;9.20;;;11.00;99.90;;;;;;4946557;28;20051;-69
2024/02/16 00:28:38;;;;;;;9.63;8.82;;;11.00;99.90;;;;;;4947122;28;20039;-69
2024/02/16 00:31:05;;;;;;;12.00;9.27;;;11.10;99.90;;;;;;4949167;28;20042;-69
2024/02/16 00:33:33;;;;;;;11.13;9.20;;;11.10;99.90;;;;;;4949552;28;20098;-69
2024/02/16 00:36:01;;;;;;;10.43;9.23;;;11.00;99.90;;;;;;4945514;28;20382;-69
2024/02/16 00:38:28;;;;;;;9.82;8.70;;;11.00;99.90;;;;;;4946782;28;20047;-69
2024/02/16 00:40:55;;;;;;;10.75;9.60;;;11.00;99.90;;;;;;4946439;28;20327;-69
2024/02/16 00:43:22;;;;;;;8.75;8.05;;;11.00;99.90;;;;;;4949065;28;20375;-68
2024/02/16 00:45:48;;;;;;;9.05;8.13;;;10.90;99.90;;;;;;4948830;28;20112;-69
2024/02/16 00:48:15;;;;;;;9.57;8.65;;;10.90;99.90;;;;;;4940986;28;20059;-69
2024/02/16 00:50:42;;;;;;;9.63;8.70;;;10.90;99.90;;;;;;4966988;28;20136;-69
2024/02/16 00:53:10;;;;;;;13.98;8.70;;;10.90;99.90;;;;;;4944620;28;20067;-69
2024/02/16 00:55:38;;;;;;;9.70;8.80;;;10.80;99.90;;;;;;4950417;28;20054;-69
2024/02/16 00:58:05;;;;;;;8.73;8.10;;;10.80;99.90;;;;;;4944119;28;20030;-69
2024/02/16 01:00:31;;;;;;;10.55;9.18;;;10.90;99.90;;;;;;4951872;28;20046;-69
2024/02/16 01:02:58;;;;;;;10.70;9.73;;;11.00;99.90;;;;;;4943691;28;20751;-69
2024/02/16 01:05:26;;;;;;;10.45;8.70;;;10.90;99.90;;;;;;4943857;28;20505;-69
2024/02/16 01:07:53;;;;;;;9.50;8.75;;;10.90;99.90;;;;;;4952285;28;20051;-68
2024/02/16 01:10:20;;;;;;;9.55;8.73;;;10.80;99.90;;;;;;4948234;28;20051;-69
2024/02/16 01:12:47;;;;;;;9.32;8.40;;;10.80;99.90;;;;;;4943471;28;20622;-69
2024/02/16 01:15:14;;;;;;;9.60;8.63;;;10.80;99.90;;;;;;4933489;28;20062;-69
2024/02/16 01:17:41;;;;;;;9.70;9.00;;;10.90;99.90;;;;;;4947720;28;20568;-69
2024/02/16 01:20:10;;;;;;;10.18;9.27;;;10.90;99.90;;;;;;4950512;28;20693;-69
2024/02/16 01:22:39;;;;;;;9.98;9.07;;;10.90;99.90;;;;;;4947384;28;20051;-70
2024/02/16 01:25:07;;;;;;;10.43;9.30;;;10.90;99.90;;;;;;4949189;28;20058;-69
2024/02/16 01:27:35;;;;;;;10.63;9.27;;;10.90;99.90;;;;;;4955021;28;20050;-71
2024/02/16 01:30:03;;;;;;;9.98;9.15;;;10.90;99.90;;;;;;4952183;28;20055;-69
2024/02/16 01:32:30;;;;;;;10.32;9.60;;;10.90;99.90;;;;;;4947772;28;20576;-69
2024/02/16 01:34:57;;;;;;;11.20;9.68;;;10.90;99.90;;;;;;4927684;28;20101;-69
2024/02/16 01:37:25;;;;;;;10.90;9.80;;;10.90;99.90;;;;;;4948496;28;20054;-69
2024/02/16 01:39:52;;;;;;;9.85;9.05;;;10.90;99.90;;;;;;4945836;28;20065;-69
2024/02/16 01:42:19;;;;;;;13.13;9.35;;;10.90;99.90;;;;;;4929556;28;20060;-69
2024/02/16 01:44:46;;;;;;;10.18;9.57;;;10.90;99.90;;;;;;4925682;28;20565;-69
2024/02/16 01:47:13;;;;;;;11.57;10.65;;;11.00;99.90;;;;;;4944072;28;20051;-69
2024/02/16 01:49:40;;;;;;;11.40;10.32;;;11.00;99.90;;;;;;4948418;28;20051;-69
2024/02/16 01:52:07;;;;;;;11.32;10.15;;;11.00;99.90;;;;;;4932145;28;20059;-69
2024/02/16 01:54:34;;;;;;;11.00;10.00;;;11.00;99.90;;;;;;4927411;28;20038;-69
2024/02/16 01:57:01;;;;;;;11.50;10.43;;;11.00;99.90;;;;;;4928524;28;20050;-70
2024/02/16 01:59:28;;;;;;;10.65;9.95;;;10.90;99.90;;;;;;4926277;28;20044;-69
2024/02/16 02:01:55;;;;;;;10.85;10.02;;;10.90;99.90;;;;;;4933287;28;20046;-69
2024/02/16 02:04:23;;;;;;;11.80;10.65;;;10.90;99.90;;;;;;4948272;28;20050;-70
2024/02/16 02:06:50;;;;;;;11.68;10.68;;;10.90;99.90;;;;;;4958111;28;20590;-70
2024/02/16 02:09:17;;;;;;;11.80;10.32;;;11.00;99.90;;;;;;4937808;28;20031;-69
2024/02/16 02:11:44;;;;;;;10.98;9.88;;;11.00;99.90;;;;;;4947257;28;20043;-69
2024/02/16 02:14:11;;;;;;;11.52;10.50;;;10.90;99.90;;;;;;4940657;28;20046;-69
2024/02/16 02:16:38;;;;;;;10.77;9.98;;;10.90;99.90;;;;;;4940660;28;20046;-69
2024/02/16 02:19:20;;;;;;;11.52;10.57;;;10.90;99.90;;;;;;4947468;28;20050;-69
2024/02/16 02:21:47;;;;;;;10.75;9.88;;;10.90;99.90;;;;;;4940148;28;20062;-69
2024/02/16 02:24:14;;;;;;;10.20;9.32;;;10.90;99.90;;;;;;4950113;28;20360;-69
2024/02/16 02:26:41;;;;;;;11.38;10.27;;;10.90;99.90;;;;;;4932970;28;20063;-69
2024/02/16 02:29:08;;;;;;;10.70;9.80;;;11.00;99.90;;;;;;4939925;28;20070;-69
2024/02/16 02:31:35;;;;;;;11.13;10.00;;;11.00;99.90;;;;;;4938353;28;20126;-69
2024/02/16 02:34:01;;;;;;;10.85;10.10;;;11.00;99.90;;;;;;4946164;28;20052;-69
2024/02/16 02:36:32;;;;;;;11.05;9.98;;;11.00;99.90;;;;;;4962687;28;20061;-69
2024/02/16 02:38:59;;;;;;;11.45;10.38;;;11.00;99.90;;;;;;4939063;28;20057;-69
2024/02/16 02:41:26;;;;;;;12.10;11.10;;;11.10;99.90;;;;;;4933281;28;20051;-69
2024/02/16 02:43:53;;;;;;;12.35;11.13;;;11.10;99.90;;;;;;4934019;28;20055;-69
2024/02/16 02:46:23;;;;;;;12.68;11.32;;;11.20;99.90;;;;;;4940463;28;20039;-69
2024/02/16 02:48:51;;;;;;;12.10;10.95;;;11.20;99.90;;;;;;4946071;28;20050;-68
2024/02/16 02:51:19;;;;;;;11.45;10.63;;;11.30;99.90;;;;;;4960044;28;20192;-69
2024/02/16 02:53:45;;;;;;;12.20;11.32;;;11.20;99.90;;;;;;4951656;28;20047;-69
2024/02/16 02:56:12;;;;;;;11.48;10.30;;;11.30;99.90;;;;;;4953350;28;20046;-70
2024/02/16 02:58:39;;;;;;;11.48;10.75;;;11.30;99.90;;;;;;4953125;28;20035;-69
2024/02/16 03:01:07;;;;;;;11.93;10.93;;;11.30;99.90;;;;;;4949821;28;20070;-69
2024/02/16 03:03:35;;;;;;;11.45;10.43;;;11.30;99.90;;;;;;4943405;28;20471;-69
2024/02/16 03:06:03;;;;;;;12.10;11.23;;;11.30;99.90;;;;;;4949960;28;20074;-70
2024/02/16 03:08:30;;;;;;;11.68;10.93;;;11.30;99.90;;;;;;4962159;28;20129;-71
2024/02/16 03:11:00;;;;;;;11.95;10.82;;;11.30;99.90;;;;;;4954813;28;20470;-69
2024/02/16 03:13:28;;;;;;;12.60;11.52;;;11.30;99.90;;;;;;4945195;28;20047;-70
2024/02/16 03:15:54;;;;;;;12.57;11.38;;;11.40;99.90;;;;;;4979182;28;20107;-73
2024/02/16 03:18:22;;;;;;;12.02;11.32;;;11.50;99.90;;;;;;4973842;28;20050;-70
2024/02/16 03:20:50;;;;;;;13.18;11.40;;;11.50;99.90;;;;;;4964783;28;20075;-70
2024/02/16 03:23:18;;;;;;;12.77;11.68;;;11.40;99.90;;;;;;4947150;28;20039;-71
2024/02/16 03:25:45;;;;;;;13.30;12.23;;;11.40;99.90;;;;;;4958667;28;20047;-69
2024/02/16 03:28:12;;;;;;;13.18;11.90;;;11.30;99.90;;;;;;4966967;28;20038;-70
2024/02/16 03:30:44;;;;;;;12.82;11.98;;;11.20;99.90;;;;;;4973022;28;20039;-69
2024/02/16 03:33:11;;;;;;;12.07;11.25;;;11.20;99.90;;;;;;4954103;28;20074;-69
2024/02/16 03:35:38;;;;;;;11.98;11.25;;;11.20;99.90;;;;;;4949980;28;20126;-71
2024/02/16 03:38:05;;;;;;;11.98;11.18;;;11.20;99.90;;;;;;4971394;28;20043;-72
2024/02/16 03:40:32;;;;;;;12.50;11.60;;;11.30;99.90;;;;;;4945786;28;20342;-69
2024/02/16 03:42:59;;;;;;;12.35;11.32;;;11.30;99.90;;;;;;4952229;28;20770;-71
2024/02/16 03:45:28;;;;;;;11.60;10.90;;;11.30;99.90;;;;;;4951782;28;20051;-71
2024/02/16 03:47:55;;;;;;;13.15;12.00;;;11.30;99.90;;;;;;4946741;28;20055;-70
2024/02/16 03:50:22;;;;;;;12.75;11.95;;;11.20;99.90;;;;;;4953928;28;20061;-70
2024/02/16 03:52:49;;;;;;;12.50;11.45;;;11.30;99.90;;;;;;4946412;28;20093;-72
2024/02/16 03:55:20;;;;;;;14.13;12.38;;;11.40;99.90;;;;;;4946096;28;20039;-67
2024/02/16 03:57:46;;;;;;;13.50;12.57;;;11.30;99.90;;;;;;4950857;28;20059;-70
2024/02/16 04:00:14;;;;;;;13.52;12.43;;;11.30;99.90;;;;;;4952737;28;20069;-70
2024/02/16 04:02:40;;;;;;;13.35;12.45;;;11.30;99.90;;;;;;4945768;28;20050;-69
2024/02/16 04:05:09;;;;;;;13.40;12.30;;;11.30;99.90;;;;;;4943464;28;20044;-69
2024/02/16 04:07:36;;;;;;;13.35;12.48;;;11.30;99.90;;;;;;4948694;28;20053;-69
2024/02/16 04:10:03;;;;;;;14.27;12.73;;;11.30;99.90;;;;;;4946694;28;20074;-70
2024/02/16 04:12:30;;;;;;;13.50;12.50;;;11.30;99.90;;;;;;4942211;28;20054;-69
2024/02/16 04:14:57;;;;;;;13.63;12.57;;;11.30;99.90;;;;;;4946461;28;20039;-69
2024/02/16 04:17:24;;;;;;;15.73;12.90;;;11.30;99.90;;;;;;4923213;28;20043;-69
2024/02/16 04:19:50;;;;;;;13.48;12.32;;;11.30;99.90;;;;;;4927636;28;20043;-69
2024/02/16 04:22:18;;;;;;;12.98;11.82;;;11.20;99.90;;;;;;4927566;28;20637;-69
2024/02/16 04:24:44;;;;;;;13.25;12.32;;;11.10;99.90;;;;;;4926323;28;20047;-68
2024/02/16 04:27:11;;;;;;;14.63;13.20;;;11.10;99.90;;;;;;4943490;28;20411;-69
2024/02/16 04:29:38;;;;;;;13.38;12.10;;;11.20;99.90;;;;;;4943752;28;20148;-69
2024/02/16 04:32:05;;;;;;;12.88;11.77;;;11.10;99.90;;;;;;4946378;28;20039;-69
2024/02/16 04:34:32;;;;;;;12.10;11.40;;;11.00;99.90;;;;;;4945248;28;20134;-69
2024/02/16 04:36:59;;;;;;;12.75;11.75;;;11.00;99.90;;;;;;4944418;28;20129;-69
2024/02/16 04:39:29;;;;;;;12.27;11.27;;;11.00;99.90;;;;;;4966004;28;20047;-69
2024/02/16 04:41:56;;;;;;;12.95;11.88;;;11.00;99.90;;;;;;4941186;28;20046;-69
2024/02/16 04:44:23;;;;;;;14.00;12.50;;;11.00;99.90;;;;;;4936545;28;20047;-68
2024/02/16 04:46:52;;;;;;;13.05;11.93;;;11.10;99.90;;;;;;4927887;28;20039;-69
2024/02/16 04:49:19;;;;;;;12.50;11.70;;;11.00;99.90;;;;;;4927055;28;20043;-69
2024/02/16 04:51:47;;;;;;;12.88;11.57;;;10.90;99.90;;;;;;4941945;28;20055;-69
2024/02/16 04:54:13;;;;;;;13.90;12.68;;;10.80;99.90;;;;;;4947780;28;20415;-69
2024/02/16 04:56:40;;;;;;;13.48;12.55;;;10.90;99.90;;;;;;4944057;28;20049;-68
2024/02/16 04:59:07;;;;;;;14.93;13.55;;;11.00;99.90;;;;;;4944851;28;20039;-70
2024/02/16 05:01:34;;;;;;;12.90;12.10;;;11.00;99.90;;;;;;4940690;28;20039;-69
2024/02/16 05:04:02;;;;;;;14.23;12.73;;;11.10;99.90;;;;;;4940394;28;20604;-69
2024/02/16 05:06:29;;;;;;;14.25;13.23;;;11.10;99.90;;;;;;4940525;28;20151;-69
2024/02/16 05:08:58;;;;;;;14.45;13.35;;;11.10;99.90;;;;;;4942517;28;20711;-69
2024/02/16 05:11:27;;;;;;;14.55;13.32;;;11.20;99.90;;;;;;4953424;28;21151;-69
2024/02/16 05:13:54;;;;;;;14.70;13.70;;;11.20;99.90;;;;;;4943350;28;20045;-69
2024/02/16 05:16:21;;;;;;;15.35;13.93;;;11.20;99.90;;;;;;4926237;28;20090;-69
2024/02/16 05:18:48;;;;;;;15.00;14.00;;;11.20;99.90;;;;;;4922110;28;20543;-68
2024/02/16 05:21:14;;;;;;;15.52;14.27;;;11.20;99.90;;;;;;4941955;28;20050;-69
2024/02/16 05:23:41;;;;;;;14.55;13.23;;;11.10;99.90;;;;;;4945949;28;20054;-69
2024/02/16 05:26:08;;;;;;;14.48;13.43;;;11.10;99.90;;;;;;4943650;28;20050;-69
2024/02/16 05:28:35;;;;;;;13.50;12.60;;;11.10;99.90;;;;;;4945104;28;20043;-69
2024/02/16 05:31:17;;;;;;;13.60;12.73;;;11.10;99.90;;;;;;4945695;28;20050;-69
2024/02/16 05:33:53;;;;;;;15.07;13.77;;;11.10;99.90;;;;;;4946088;28;20817;-69
2024/02/16 05:36:24;;;;;;;14.95;13.55;;;11.10;99.90;;;;;;4950171;28;20171;-69
2024/02/16 05:38:51;;;;;;;14.48;13.10;;;11.10;99.90;;;;;;4948232;28;20062;-69
2024/02/16 05:41:18;;;;;;;15.05;13.80;;;11.10;99.90;;;;;;4962797;28;20058;-69
2024/02/16 05:43:45;;;;;;;14.95;13.95;;;11.20;99.90;;;;;;4945198;28;20051;-69
2024/02/16 05:46:16;;;;;;;14.55;13.52;;;11.20;99.90;;;;;;4934658;28;20059;-68
2024/02/16 05:48:44;;;;;;;14.27;13.18;;;11.20;99.90;;;;;;4925183;28;20122;-69
2024/02/16 05:51:12;;;;;;;14.93;13.55;;;11.10;99.90;;;;;;4935093;28;20039;-69
2024/02/16 05:53:40;;;;;;;14.35;13.23;;;11.20;99.90;;;;;;4947852;28;20047;-69
2024/02/16 05:56:07;;;;;;;16.67;15.38;;;11.20;99.90;;;;;;4960627;28;20039;-69
2024/02/16 05:58:34;;;;;;;14.32;13.15;;;11.20;99.90;;;;;;4942844;28;20082;-69
2024/02/16 06:01:01;;;;;;;14.88;13.93;;;11.20;99.90;;;;;;4948786;28;20058;-69
2024/02/16 06:03:28;;;;;;;17.25;15.68;;;11.20;99.90;;;;;;4947818;28;20050;-69
2024/02/16 06:05:55;;;;;;;15.50;13.93;;;11.20;99.90;;;;;;4947060;28;20051;-69
2024/02/16 06:08:22;;;;;;;15.68;14.32;;;11.20;99.90;;;;;;4948776;28;20046;-69
2024/02/16 06:10:54;;;;;;;15.00;13.55;;;11.20;99.90;;;;;;4949311;28;20051;-69
2024/02/16 06:13:21;;;;;;;14.10;13.20;;;11.10;99.90;;;;;;4948184;28;20074;-69
2024/02/16 06:15:48;;;;;;;14.90;13.75;;;11.20;99.90;;;;;;4934484;28;20115;-69
2024/02/16 06:18:15;;;;;;;15.38;14.10;;;11.10;99.90;;;;;;4923299;28;21262;-70
2024/02/16 06:20:42;;;;;;;14.45;13.30;;;11.20;99.90;;;;;;4935429;28;20043;-69
2024/02/16 06:23:09;;;;;;;14.50;13.50;;;11.20;99.90;;;;;;4947546;28;20673;-69
2024/02/16 06:25:36;;;;;;;15.45;14.27;;;11.10;99.90;;;;;;4945463;28;20512;-69
2024/02/16 06:28:04;;;;;;;14.63;13.50;;;11.20;99.90;;;;;;4943009;28;20058;-69
2024/02/16 06:30:31;;;;;;;15.63;14.00;;;11.20;99.90;;;;;;4942584;28;21934;-69
2024/02/16 06:32:58;;;;;;;14.63;13.60;;;11.10;99.90;;;;;;4941192;28;20058;-69
2024/02/16 06:35:25;;;;;;;14.65;13.35;;;11.10;99.90;;;;;;4944647;28;20039;-69
2024/02/16 06:37:53;;;;;;;17.67;15.95;;;11.10;99.90;;;;;;4964209;28;20043;-70
2024/02/16 06:40:20;;;;;;;15.57;14.18;;;11.10;99.90;;;;;;4940992;28;20039;-69
2024/02/16 06:42:47;;;;;;;14.82;13.77;;;11.00;99.90;;;;;;4941157;28;20047;-70
2024/02/16 06:45:14;;;;;;;15.05;13.75;;;11.00;99.90;;;;;;4948623;28;20061;-70
2024/02/16 06:47:41;;;;;;;14.27;13.38;;;11.00;99.90;;;;;;4926552;28;20102;-70
2024/02/16 06:50:09;;;;;;;14.65;13.38;;;10.90;99.90;;;;;;4921205;28;20149;-69
2024/02/16 06:52:36;;;;;;;15.70;14.52;;;11.00;99.90;;;;;;4917963;28;20143;-70
2024/02/16 06:55:03;;;;;;;14.55;13.57;;;11.00;99.90;;;;;;4922553;28;20039;-70
2024/02/16 06:57:31;;;;;;;14.95;13.85;;;11.00;99.90;;;;;;4922152;28;20058;-69
2024/02/16 06:59:58;;;;;;;16.08;14.38;;;11.00;99.90;;;;;;4924284;28;20042;-70
2024/02/16 07:02:25;;;;;;;16.10;14.77;;;11.00;99.90;;;;;;4940032;28;20039;-69
2024/02/16 07:04:52;;;;;;;15.43;14.10;;;11.10;99.90;;;;;;4943056;28;20046;-70
2024/02/16 07:07:18;;;;;;;13.90;12.80;;;11.00;99.90;;;;;;4941376;28;20071;-69
2024/02/16 07:09:45;;;;;;;15.40;13.95;;;11.00;99.90;;;;;;4945359;28;20047;-69
2024/02/16 07:12:12;;;;;;;16.70;15.25;;;11.00;99.90;;;;;;4946618;28;20546;-69
2024/02/16 07:14:39;;;;;;;22.05;20.52;;;10.90;99.90;;;;;;4949329;28;20588;-70
2024/02/16 07:17:09;;;;;;;22.17;20.33;;;11.00;99.90;;;;;;4963045;28;20462;-70
2024/02/16 07:19:37;;;;;;;21.63;20.15;;;11.00;99.90;;;;;;4944770;28;20047;-70
2024/02/16 07:22:06;;;;;;;20.33;19.15;;;11.00;99.90;;;;;;4939592;28;20046;-70
2024/02/16 07:24:33;;;;;;;20.02;18.85;;;11.10;99.90;;;;;;4940532;28;20047;-67
2024/02/16 07:27:01;;;;;;;20.65;18.95;;;11.10;99.90;;;;;;4937035;28;20057;-71
2024/02/16 07:29:28;;;;;;;20.42;19.20;;;11.10;99.90;;;;;;4958988;28;20089;-70
2024/02/16 07:31:56;;;;;;;19.88;18.30;;;11.10;99.90;;;;;;4942115;28;20066;-70
2024/02/16 07:34:23;;;;;;;19.80;18.63;;;11.10;99.90;;;;;;4941562;28;20684;-68
2024/02/16 07:36:50;;;;;;;20.23;18.80;;;11.20;99.90;;;;;;4958149;28;20045;-67
2024/02/16 07:39:17;;;;;;;20.25;19.05;;;11.20;99.90;;;;;;4944601;28;20039;-68
2024/02/16 07:41:44;;;;;;;19.52;18.42;;;11.30;99.90;;;;;;4943472;28;20118;-69
2024/02/16 07:44:11;;;;;;;20.77;19.20;;;11.40;99.90;;;;;;4942020;28;20050;-68
2024/02/16 07:46:41;;;;;;;20.45;19.08;;;11.50;99.90;;;;;;4926754;28;20074;-71
2024/02/16 07:49:10;;;;;;;21.20;19.88;;;11.60;99.90;;;;;;4920213;28;20466;-69
2024/02/16 07:51:37;;;;;;;25.20;23.60;;;11.50;99.90;;;;;;4934752;28;20083;-69
2024/02/16 07:54:06;;;;;;;20.88;19.63;;;11.70;99.90;;;;;;4943561;28;20042;-68
2024/02/16 07:56:33;;;;;;;23.73;22.10;;;11.70;99.90;;;;;;4948879;28;20034;-69
2024/02/16 07:59:00;;;;;;;21.33;20.10;;;11.80;99.90;;;;;;4938873;28;20054;-69
2024/02/16 08:01:26;;;;;;;20.25;18.90;;;11.90;99.90;;;;;;4948126;28;20035;-69
2024/02/16 08:03:54;;;;;;;20.40;18.80;;;11.90;99.90;;;;;;4939458;28;20057;-70
2024/02/16 08:06:25;;;;;;;22.45;20.85;;;12.00;99.90;;;;;;4940177;28;20050;-70
2024/02/16 08:08:53;;;;;;;22.10;20.30;;;12.00;99.90;;;;;;4939324;28;20054;-68
2024/02/16 08:11:20;;;;;;;28.95;26.48;;;12.10;99.90;;;;;;4945856;28;20073;-67
2024/02/16 08:13:47;;;;;;;23.52;21.67;;;12.10;99.90;;;;;;4943801;28;20051;-70
2024/02/16 08:16:13;;;;;;;20.95;19.55;;;12.10;99.90;;;;;;4937021;28;20039;-71
2024/02/16 08:18:43;;;;;;;21.63;20.30;;;12.20;99.90;;;;;;4938684;28;20051;-68
2024/02/16 08:21:10;;;;;;;22.60;21.10;;;12.20;99.90;;;;;;4944268;28;20035;-68
2024/02/16 08:23:38;;;;;;;22.25;20.85;;;12.30;99.90;;;;;;4944186;28;20067;-69
2024/02/16 08:26:05;;;;;;;21.15;19.80;;;12.30;99.90;;;;;;4946554;28;20058;-68
2024/02/16 08:28:31;;;;;;;22.42;20.80;;;12.30;99.90;;;;;;4947452;28;20593;-68
2024/02/16 08:30:58;;;;;;;24.00;22.48;;;12.30;99.90;;;;;;4943350;28;20050;-70
2024/02/16 08:33:25;;;;;;;22.20;20.80;;;12.30;99.90;;;;;;4948028;28;20125;-70
2024/02/16 08:35:52;;;;;;;21.25;19.88;;;12.40;99.90;;;;;;4945794;28;20615;-70
2024/02/16 08:38:19;;;;;;;21.00;19.73;;;12.40;99.90;;;;;;4942241;28;20082;-69
2024/02/16 08:40:47;;;;;;;20.65;19.27;;;12.40;99.90;;;;;;4950289;28;20526;-70
2024/02/16 08:43:14;;;;;;;18.88;17.67;;;12.40;99.90;;;;;;4944021;28;20080;-69
2024/02/16 08:45:41;;;;;;;20.30;18.85;;;12.50;99.90;;;;;;4960014;28;20481;-69
2024/02/16 08:48:09;;;;;;;20.60;19.02;;;12.60;99.90;;;;;;4939829;28;20054;-69
2024/02/16 08:50:36;;;;;;;21.88;20.35;;;12.70;99.90;;;;;;4939579;28;20407;-69
2024/02/16 08:53:03;;;;;;;22.15;20.55;;;12.70;99.90;;;;;;4922199;28;20522;-70
2024/02/16 08:55:29;;;;;;;23.38;22.08;;;12.80;99.90;;;;;;4932296;28;20062;-69
2024/02/16 08:57:57;;;;;;;26.10;23.45;;;12.70;99.90;;;;;;4942410;28;20566;-70
2024/02/16 09:00:26;;;;;;;25.45;23.52;;;12.60;99.90;;;;;;4966419;28;20105;-69
2024/02/16 09:02:53;;;;;;;26.70;24.88;;;12.50;99.90;;;;;;4947395;28;20118;-69
2024/02/16 09:05:20;;;;;;;31.33;29.52;;;12.40;99.90;;;;;;4944991;28;20134;-69
2024/02/16 09:07:47;;;;;;;29.63;27.58;;;12.30;99.90;;;;;;4951449;28;20031;-69
2024/02/16 09:10:14;;;;;;;23.48;21.88;;;12.30;99.90;;;;;;4945517;28;20560;-70
2024/02/16 09:12:41;;;;;;;21.30;19.88;;;12.30;99.90;;;;;;4951263;28;20058;-70
2024/02/16 09:15:08;;;;;;;20.77;19.25;;;12.30;99.90;;;;;;4949084;28;20484;-70
2024/02/16 09:17:35;;;;;;;24.98;23.10;;;12.40;99.90;;;;;;4930043;28;20231;-70
2024/02/16 09:20:04;;;;;;;29.02;26.65;;;12.50;99.90;;;;;;4931259;28;20701;-70
2024/02/16 09:22:31;;;;;;;27.92;25.90;;;12.60;99.90;;;;;;4933127;28;20058;-70
2024/02/16 09:25:01;;;;;;;26.23;24.33;;;12.60;99.90;;;;;;4926532;28;20047;-70
2024/02/16 09:27:28;;;;;;;27.77;25.38;;;12.70;99.90;;;;;;4954124;28;20050;-71
2024/02/16 09:29:55;;;;;;;30.00;27.85;;;12.80;99.90;;;;;;4951820;28;20043;-70
2024/02/16 09:32:22;;;;;;;32.25;29.83;;;12.90;99.90;;;;;;4947878;28;20080;-70
2024/02/16 09:34:50;;;;;;;37.00;34.92;;;12.90;99.90;;;;;;4949129;28;20046;-71
2024/02/16 09:37:18;;;;;;;32.45;29.95;;;12.90;99.90;;;;;;4950093;28;20051;-70
2024/02/16 09:39:44;;;;;;;26.40;24.70;;;12.90;99.90;;;;;;4948238;28;20054;-70
2024/02/16 09:42:14;;;;;;;27.10;25.40;;;12.90;99.90;;;;;;4927763;28;20046;-70
2024/02/16 09:44:42;;;;;;;27.38;25.70;;;12.90;99.90;;;;;;4925154;28;20143;-69
2024/02/16 09:47:12;;;;;;;48.17;43.38;;;12.90;99.90;;;;;;4925422;28;20054;-68
2024/02/16 09:49:40;;;;;;;28.55;26.95;;;12.90;99.90;;;;;;4923390;28;20146;-71
2024/02/16 09:52:11;;;;;;;26.70;24.70;;;13.00;99.90;;;;;;4925289;28;20043;-72
2024/02/16 09:54:40;;;;;;;30.98;28.75;;;13.10;99.90;;;;;;4946114;28;20102;-71
2024/02/16 09:57:09;;;;;;;26.70;24.98;;;13.20;99.90;;;;;;4941460;28;20129;-69
2024/02/16 09:59:36;;;;;;;27.13;25.33;;;13.10;99.90;;;;;;4951283;28;20820;-70
2024/02/16 10:02:04;;;;;;;26.85;25.25;;;13.10;99.90;;;;;;4948050;28;20046;-71
2024/02/16 10:04:31;;;;;;;29.20;27.15;;;13.20;99.90;;;;;;4944847;28;20058;-70
2024/02/16 10:07:04;;;;;;;28.00;25.92;;;13.10;99.90;;;;;;4957299;28;20129;-69
2024/02/16 10:09:36;;;;;;;28.30;26.60;;;13.20;99.90;;;;;;4943188;28;20130;-69
2024/02/16 10:12:03;;;;;;;32.20;30.17;;;13.20;99.90;;;;;;4931087;28;20133;-71
2024/02/16 10:14:31;;;;;;;37.55;34.72;;;13.30;99.90;;;;;;4929973;28;20059;-69
2024/02/16 10:17:03;;;;;;;32.88;30.77;;;13.30;99.90;;;;;;4936355;28;20205;-70
2024/02/16 10:19:39;;;;;;;27.50;25.75;;;13.30;99.90;;;;;;4949464;28;20137;-71
2024/02/16 10:22:12;;;;;;;27.58;25.90;;;13.30;99.90;;;;;;4941290;28;20050;-73
2024/02/16 10:24:41;;;;;;;28.38;26.25;;;13.30;99.90;;;;;;4943006;28;20102;-71
2024/02/16 10:27:16;;;;;;;31.10;29.08;;;13.40;99.90;;;;;;4944295;28;20038;-71
2024/02/16 10:29:46;;;;;;;33.20;30.98;;;13.40;99.90;;;;;;4944706;28;20097;-71
2024/02/16 10:32:13;;;;;;;37.17;34.72;;;13.50;99.90;;;;;;4946940;28;20047;-71
2024/02/16 10:34:41;;;;;;;38.08;35.88;;;13.50;99.90;;;;;;4944283;28;20054;-71
2024/02/16 10:37:09;;;;;;;32.92;30.67;;;13.60;99.90;;;;;;4947976;28;20127;-73
2024/02/16 10:39:38;;;;;;;35.33;33.42;;;13.70;99.90;;;;;;4966048;28;20043;-73
2024/02/16 10:42:08;;;;;;;32.53;30.58;;;13.70;99.90;;;;;;4948449;28;20035;-73
2024/02/16 10:44:36;;;;;;;30.77;28.83;;;13.80;99.90;;;;;;4942745;28;20129;-73
2024/02/16 10:47:04;;;;;;;34.40;31.90;;;13.80;99.90;;;;;;4947108;28;20051;-71
2024/02/16 10:49:31;;;;;;;30.35;28.38;;;13.80;99.90;;;;;;4945037;28;20139;-71
2024/02/16 10:52:02;;;;;;;25.25;23.52;;;13.70;99.90;;;;;;4946836;28;20160;-74
2024/02/16 10:54:33;;;;;;;28.33;26.70;;;13.60;99.90;;;;;;4948006;28;20049;-73
2024/02/16 10:57:01;;;;;;;35.50;32.58;;;13.50;99.90;;;;;;4936346;28;20059;-73
2024/02/16 10:59:41;;;;;;;27.42;25.73;;;13.50;99.90;;;;;;4944686;28;20043;-73
2024/02/16 11:02:08;;;;;;;25.40;23.77;;;13.50;99.90;;;;;;4961217;28;20059;-75
2024/02/16 11:04:39;;;;;;;23.63;22.23;;;13.40;99.90;;;;;;4956640;28;20058;-72
2024/02/16 11:07:16;;;;;;;27.50;25.70;;;13.50;99.90;;;;;;4945424;28;20725;-73
2024/02/16 11:09:45;;;;;;;24.02;22.48;;;13.60;99.90;;;;;;4946800;28;20134;-73
2024/02/16 11:12:15;;;;;;;23.23;21.92;;;13.70;99.90;;;;;;4944346;28;20079;-73
2024/02/16 11:14:46;;;;;;;24.58;23.08;;;13.70;99.90;;;;;;4945545;28;20049;-72
2024/02/16 11:17:14;;;;;;;24.15;22.48;;;13.80;99.90;;;;;;4962657;28;20183;-73
2024/02/16 11:19:42;;;;;;;23.17;21.40;;;13.80;99.90;;;;;;4957578;28;20046;-72
2024/02/16 11:22:11;;;;;;;23.98;22.38;;;13.90;99.90;;;;;;4937171;28;20051;-72
2024/02/16 11:24:46;;;;;;;23.35;21.58;;;14.00;99.90;;;;;;4933694;28;20535;-72
2024/02/16 11:27:18;;;;;;;22.55;20.98;;;14.10;99.90;;;;;;4942149;28;20078;-73
2024/02/16 11:29:46;;;;;;;24.13;22.20;;;14.20;99.90;;;;;;4929009;28;20047;-71
2024/02/16 11:32:13;;;;;;;23.17;21.33;;;14.30;99.90;;;;;;4947494;28;20062;-72
2024/02/16 11:34:39;;;;;;;23.65;22.10;;;14.40;99.90;;;;;;4951456;28;20285;-72
2024/02/16 11:37:07;;;;;;;24.67;22.83;;;14.40;99.90;;;;;;4962942;28;20039;-72
2024/02/16 11:39:37;;;;;;;23.95;22.23;;;14.60;99.90;;;;;;4949680;28;20752;-72
2024/02/16 11:42:06;;;;;;;24.13;22.45;;;14.70;99.90;;;;;;4943162;28;20149;-71
2024/02/16 11:44:35;;;;;;;23.70;22.23;;;14.70;99.90;;;;;;4942411;28;20502;-72
2024/02/16 11:47:03;;;;;;;29.95;27.23;;;14.70;99.90;;;;;;4954756;28;20518;-71
2024/02/16 11:49:30;;;;;;;30.60;28.42;;;14.80;99.90;;;;;;4943045;28;20735;-73
2024/02/16 11:52:00;;;;;;;32.90;31.13;;;14.80;99.90;;;;;;4929662;28;20054;-74
2024/02/16 11:54:28;;;;;;;29.50;27.15;;;14.80;99.90;;;;;;4928052;28;20050;-74
2024/02/16 11:56:55;;;;;;;28.63;26.15;;;14.70;99.90;;;;;;4932480;28;20051;-73
2024/02/16 11:59:22;;;;;;;29.50;27.25;;;14.60;99.90;;;;;;4929132;28;20066;-73
2024/02/16 12:01:54;;;;;;;27.75;25.35;;;14.60;99.90;;;;;;4944168;28;20039;-73
2024/02/16 12:04:31;;;;;;;27.23;25.45;;;14.60;99.90;;;;;;4944231;28;22275;-74
2024/02/16 12:07:03;;;;;;;29.67;27.83;;;14.60;99.90;;;;;;4948003;28;20067;-71
2024/02/16 12:09:34;;;;;;;30.70;28.40;;;14.60;99.90;;;;;;4946941;28;20059;-71
2024/02/16 12:12:02;;;;;;;32.42;30.02;;;14.60;99.90;;;;;;4932242;28;20039;-70
2024/02/16 12:14:29;;;;;;;25.77;23.95;;;14.60;99.90;;;;;;4926898;28;20039;-72
2024/02/16 12:16:57;;;;;;;23.23;21.60;;;14.50;99.90;;;;;;4948376;28;20043;-73
2024/02/16 12:19:25;;;;;;;22.65;20.83;;;14.50;99.90;;;;;;4938114;28;20077;-72
2024/02/16 12:21:53;;;;;;;23.63;21.70;;;14.40;99.90;;;;;;4944767;28;20601;-72
2024/02/16 12:24:21;;;;;;;23.73;21.52;;;14.30;99.90;;;;;;4945080;28;20511;-72
2024/02/16 12:26:48;;;;;;;22.58;20.88;;;14.30;99.90;;;;;;4929430;28;20129;-73
2024/02/16 12:29:16;;;;;;;22.02;20.52;;;14.30;99.90;;;;;;4957698;28;20458;-73
2024/02/16 12:31:45;;;;;;;20.27;18.73;;;14.20;99.90;;;;;;4954691;28;20047;-73